Terminal Aerodrome Forecast
Issued by NWS

Home | Current Version | Previous Version | Text Only | Print | Product List | Glossary Off
Versions: 1 2 3 4 5 6 7 8 9 10 11 12 13 14

000
FTUS43 KBIS 210500
TAFDIK
TAF
KDIK 210527Z 2106/2206 19013KT P6SM SCT090 BKN150
     FM211200 23014KT P6SM BKN150
     FM211800 25016KT P6SM SCT150
     FM220100 23012KT P6SM SCT080=

USA.gov is the U.S. government's official web portal to all federal, state and local government web resources and services.